TimeCDT,TemperatureF,Dew PointF,Humidity,Sea Level PressureIn,VisibilityMPH,Wind Direction,Wind SpeedMPH,Gust SpeedMPH,PrecipitationIn,Events,Conditions,WindDirDegrees,DateUTC
12:15 AM,40.6,19.4,43,30.23,10.0,NW,9.2,-,N/A,,Clear,320,2012-10-06 05:15:00
12:35 AM,40.3,20.3,45,30.24,10.0,NW,8.1,-,N/A,,Clear,310,2012-10-06 05:35:00
12:55 AM,39.4,21.0,48,30.24,10.0,NW,6.9,-,N/A,,Clear,310,2012-10-06 05:55:00
1:15 AM,38.1,20.5,49,30.24,10.0,WNW,8.1,-,N/A,,Clear,290,2012-10-06 06:15:00
1:35 AM,36.5,20.3,52,30.25,10.0,WNW,8.1,-,N/A,,Clear,300,2012-10-06 06:35:00
1:55 AM,36.5,21.0,54,30.25,10.0,WNW,9.2,-,N/A,,Clear,300,2012-10-06 06:55:00
2:15 AM,36.0,20.8,54,30.25,10.0,WNW,8.1,-,N/A,,Clear,290,2012-10-06 07:15:00
2:35 AM,35.6,21.2,56,30.25,10.0,WNW,9.2,-,N/A,,Clear,290,2012-10-06 07:35:00
2:55 AM,35.2,21.6,58,30.25,10.0,WNW,8.1,-,N/A,,Clear,290,2012-10-06 07:55:00
3:15 AM,34.7,21.7,59,30.24,10.0,WNW,8.1,-,N/A,,Clear,290,2012-10-06 08:15:00
3:55 AM,34.0,21.6,60,30.24,10.0,West,6.9,-,N/A,,Clear,280,2012-10-06 08:55:00
4:35 AM,32.5,21.7,64,30.25,10.0,West,9.2,-,N/A,,Clear,280,2012-10-06 09:35:00
4:55 AM,32.9,21.7,64,30.25,10.0,WNW,9.2,-,N/A,,Clear,290,2012-10-06 09:55:00
5:15 AM,32.5,21.6,64,30.25,10.0,WNW,9.2,-,N/A,,Clear,290,2012-10-06 10:15:00
5:35 AM,32.0,21.6,65,30.25,10.0,WNW,8.1,-,N/A,,Clear,290,2012-10-06 10:35:00
5:55 AM,32.0,21.7,66,30.25,10.0,WNW,8.1,-,N/A,,Clear,290,2012-10-06 10:55:00
6:15 AM,32.0,21.9,66,30.25,10.0,WNW,10.4,-,N/A,,Clear,300,2012-10-06 11:15:00
6:55 AM,32.0,22.5,68,30.26,10.0,NW,13.8,17.3,N/A,,Clear,310,2012-10-06 11:55:00
7:15 AM,32.0,22.6,68,30.26,10.0,NW,12.7,-,N/A,,Clear,310,2012-10-06 12:15:00
7:35 AM,32.0,22.8,69,30.27,10.0,NW,11.5,18.4,N/A,,Clear,310,2012-10-06 12:35:00
7:55 AM,32.0,23.2,70,30.28,10.0,WNW,12.7,17.3,N/A,,Clear,300,2012-10-06 12:55:00
8:15 AM,33.3,24.4,70,30.28,10.0,WNW,11.5,17.3,N/A,,Clear,300,2012-10-06 13:15:00
8:35 AM,34.7,24.8,67,30.29,10.0,NW,11.5,20.7,N/A,,Clear,310,2012-10-06 13:35:00
8:55 AM,36.3,25.3,64,30.29,10.0,NW,13.8,21.9,N/A,,Clear,310,2012-10-06 13:55:00
9:15 AM,38.3,25.9,61,30.30,10.0,NW,11.5,-,N/A,,Clear,310,2012-10-06 14:15:00
9:35 AM,39.9,26.2,58,30.31,10.0,NW,15.0,18.4,N/A,,Scattered Clouds,320,2012-10-06 14:35:00
9:55 AM,40.6,26.2,57,30.31,10.0,NNW,17.3,26.5,N/A,,Mostly Cloudy,330,2012-10-06 14:55:00
10:15 AM,41.2,26.4,56,30.31,10.0,NNW,17.3,26.5,N/A,,Overcast,330,2012-10-06 15:15:00
10:35 AM,41.4,26.4,55,30.31,10.0,NNW,18.4,21.9,N/A,,Overcast,330,2012-10-06 15:35:00
10:55 AM,41.7,26.8,55,30.31,10.0,NW,11.5,26.5,N/A,,Overcast,310,2012-10-06 15:55:00
11:15 AM,43.2,26.6,52,30.30,10.0,NNW,15.0,24.2,N/A,,Overcast,330,2012-10-06 16:15:00
11:35 AM,43.5,26.2,51,30.30,10.0,NNW,17.3,24.2,N/A,,Overcast,330,2012-10-06 16:35:00
11:55 AM,43.7,26.6,51,30.30,10.0,NNW,17.3,20.7,N/A,,Overcast,330,2012-10-06 16:55:00
12:15 PM,44.1,26.6,50,30.30,10.0,NNW,10.4,19.6,N/A,,Overcast,340,2012-10-06 17:15:00
12:35 PM,44.8,27.0,50,30.30,10.0,NNW,17.3,-,N/A,,Overcast,340,2012-10-06 17:35:00
12:55 PM,45.0,26.6,49,30.29,10.0,NNW,16.1,20.7,N/A,,Overcast,340,2012-10-06 17:55:00
1:15 PM,44.8,26.2,48,30.29,10.0,NW,10.4,-,N/A,,Overcast,310,2012-10-06 18:15:00
1:35 PM,45.5,26.6,48,30.29,10.0,NW,9.2,17.3,N/A,,Overcast,320,2012-10-06 18:35:00
1:55 PM,45.0,26.2,48,30.29,10.0,NW,11.5,-,N/A,,Overcast,310,2012-10-06 18:55:00
2:15 PM,44.8,25.9,48,30.28,10.0,NNW,10.4,18.4,N/A,,Overcast,330,2012-10-06 19:15:00
2:35 PM,45.0,26.2,48,30.28,10.0,NNW,5.8,-,N/A,,Overcast,330,2012-10-06 19:35:00
2:55 PM,45.5,25.7,46,30.28,10.0,NW,8.1,-,N/A,,Overcast,320,2012-10-06 19:55:00
3:15 PM,45.5,25.5,46,30.28,10.0,NW,10.4,-,N/A,,Overcast,310,2012-10-06 20:15:00
3:35 PM,45.5,25.5,46,30.28,10.0,NNW,12.7,-,N/A,,Overcast,340,2012-10-06 20:35:00
3:55 PM,45.5,25.0,45,30.27,10.0,NW,6.9,25.3,N/A,,Overcast,320,2012-10-06 20:55:00
4:15 PM,45.7,25.0,44,30.27,10.0,NW,10.4,-,N/A,,Overcast,320,2012-10-06 21:15:00
4:35 PM,45.5,25.2,45,30.27,10.0,NW,8.1,-,N/A,,Overcast,310,2012-10-06 21:35:00
4:55 PM,45.5,25.3,45,30.26,10.0,NW,11.5,-,N/A,,Overcast,320,2012-10-06 21:55:00
5:15 PM,45.7,25.7,46,30.26,10.0,NNW,9.2,-,N/A,,Overcast,340,2012-10-06 22:15:00
5:35 PM,45.1,25.9,47,30.26,10.0,NW,8.1,-,N/A,,Overcast,320,2012-10-06 22:35:00
5:55 PM,45.0,25.9,47,30.26,10.0,NNW,9.2,-,N/A,,Overcast,340,2012-10-06 22:55:00
6:15 PM,44.8,26.1,48,30.26,10.0,North,9.2,-,N/A,,Overcast,350,2012-10-06 23:15:00
6:35 PM,44.6,25.7,48,30.26,10.0,NNW,9.2,-,N/A,,Overcast,330,2012-10-06 23:35:00
6:55 PM,44.1,25.9,49,30.26,10.0,North,5.8,-,N/A,,Overcast,350,2012-10-06 23:55:00
7:15 PM,43.3,26.6,52,30.27,10.0,NNW,6.9,-,N/A,,Overcast,340,2012-10-07 00:15:00
7:35 PM,42.3,26.4,54,30.27,10.0,NNW,6.9,-,N/A,,Overcast,340,2012-10-07 00:35:00
7:55 PM,41.4,25.7,54,30.28,10.0,NNW,6.9,-,N/A,,Scattered Clouds,330,2012-10-07 00:55:00
8:15 PM,40.1,25.7,56,30.28,10.0,NNW,5.8,-,N/A,,Mostly Cloudy,330,2012-10-07 01:15:00
8:35 PM,38.7,25.3,59,30.28,10.0,NW,3.5,-,N/A,,Mostly Cloudy,320,2012-10-07 01:35:00
8:55 PM,39.6,24.4,55,30.29,10.0,NW,3.5,-,N/A,,Scattered Clouds,320,2012-10-07 01:55:00
9:15 PM,40.1,24.4,54,30.28,10.0,NW,3.5,-,N/A,,Mostly Cloudy,320,2012-10-07 02:15:00
9:35 PM,38.7,23.7,55,30.28,10.0,NW,3.5,-,N/A,,Scattered Clouds,310,2012-10-07 02:35:00
9:55 PM,39.2,23.7,54,30.29,10.0,WNW,3.5,-,N/A,,Clear,290,2012-10-07 02:55:00
10:15 PM,38.3,24.3,57,30.29,10.0,West,3.5,-,N/A,,Clear,280,2012-10-07 03:15:00
10:35 PM,38.5,23.9,56,30.28,10.0,NW,3.5,-,N/A,,Clear,320,2012-10-07 03:35:00
10:55 PM,38.3,23.9,56,30.28,10.0,Calm,Calm,-,N/A,,Clear,0,2012-10-07 03:55:00
11:15 PM,37.2,24.3,60,30.28,10.0,Calm,Calm,-,N/A,,Clear,0,2012-10-07 04:15:00
11:35 PM,35.1,24.6,66,30.28,10.0,West,3.5,-,N/A,,Clear,270,2012-10-07 04:35:00
11:55 PM,33.3,24.3,70,30.28,10.0,West,4.6,-,N/A,,Clear,280,2012-10-07 04:55:00